createdAt,value
2022-12-28T00:01:17.056Z,6.63
2022-12-28T00:03:44.507Z,5.00
2022-12-28T00:06:11.983Z,5.30
2022-12-28T00:08:39.461Z,6.00
2022-12-28T00:11:12.293Z,5.03
2022-12-28T00:13:47.096Z,5.97
2022-12-28T00:16:22.394Z,6.73
2022-12-28T00:21:23.355Z,6.50
2022-12-28T00:23:53.344Z,5.97
2022-12-28T00:26:24.854Z,6.17
2022-12-28T00:28:55.567Z,6.43
2022-12-28T00:31:27.335Z,6.03
2022-12-28T00:33:55.030Z,5.60
2022-12-28T00:36:22.749Z,6.00
2022-12-28T00:38:50.201Z,6.90
2022-12-28T00:41:18.038Z,5.37
2022-12-28T00:43:46.507Z,5.93
2022-12-28T00:46:14.185Z,6.20
2022-12-28T00:48:41.804Z,5.97
2022-12-28T00:51:13.602Z,5.33
2022-12-28T00:53:41.257Z,5.33
2022-12-28T00:56:10.271Z,5.70
2022-12-28T00:58:37.682Z,5.70
2022-12-28T01:01:05.527Z,6.47
2022-12-28T01:03:33.123Z,5.97
2022-12-28T01:06:00.533Z,6.77
2022-12-28T01:08:27.925Z,5.50
2022-12-28T01:10:55.363Z,5.13
2022-12-28T01:13:22.843Z,5.30
2022-12-28T01:15:50.240Z,5.47
2022-12-28T01:18:17.687Z,5.43
2022-12-28T01:20:45.379Z,6.00
2022-12-28T01:23:12.829Z,5.63
2022-12-28T01:25:40.191Z,6.13
2022-12-28T01:28:07.578Z,5.40
2022-12-28T01:30:35.040Z,5.07
2022-12-28T01:33:06.621Z,5.07
2022-12-28T01:35:34.038Z,6.37
2022-12-28T01:38:01.409Z,6.47
2022-12-28T01:40:28.931Z,6.77
2022-12-28T01:42:56.559Z,7.27
2022-12-28T01:45:27.209Z,6.60
2022-12-28T01:47:55.771Z,6.63
2022-12-28T01:50:26.673Z,6.03
2022-12-28T01:52:58.505Z,7.23
2022-12-28T01:55:28.556Z,7.57
2022-12-28T01:58:15.942Z,8.40
2022-12-28T02:00:43.397Z,8.00
2022-12-28T02:03:14.888Z,7.33
2022-12-28T02:05:44.642Z,7.40
2022-12-28T02:08:30.525Z,10.00
2022-12-28T02:13:27.136Z,8.03
2022-12-28T02:15:54.559Z,9.80
2022-12-28T02:18:23.068Z,7.77
2022-12-28T02:21:10.342Z,8.10
2022-12-28T02:23:57.572Z,8.63
2022-12-28T02:26:44.942Z,8.60
2022-12-28T02:29:32.222Z,8.70
2022-12-28T02:32:19.850Z,9.53
2022-12-28T02:35:00.802Z,9.90
2022-12-28T02:37:33.148Z,10.23
2022-12-28T02:40:04.533Z,9.47
2022-12-28T02:42:32.639Z,11.17
2022-12-28T02:45:19.924Z,11.27
2022-12-28T02:48:07.349Z,11.93
2022-12-28T02:50:45.768Z,10.60
2022-12-28T02:53:23.216Z,10.90
2022-12-28T02:56:08.048Z,9.77
2022-12-28T02:58:55.330Z,9.63
2022-12-28T03:01:42.743Z,10.40
2022-12-28T03:04:30.043Z,11.47
2022-12-28T03:07:37.120Z,10.83
2022-12-28T03:10:24.374Z,9.87
2022-12-28T03:12:57.446Z,12.73
2022-12-28T03:15:35.131Z,11.63
2022-12-28T03:18:26.119Z,11.03
2022-12-28T03:21:15.348Z,11.27
2022-12-28T03:24:03.832Z,11.23
2022-12-28T03:26:54.029Z,9.07
2022-12-28T03:29:42.611Z,10.13
2022-12-28T03:32:10.847Z,10.60
2022-12-28T03:34:38.479Z,10.30
2022-12-28T03:37:18.017Z,9.87
2022-12-28T03:39:52.143Z,9.23
2022-12-28T03:43:02.385Z,9.27
2022-12-28T03:45:45.948Z,8.57
2022-12-28T03:48:15.996Z,10.20
2022-12-28T03:50:46.113Z,8.90
2022-12-28T03:53:13.896Z,10.10
2022-12-28T03:55:43.350Z,10.70
2022-12-28T03:58:10.784Z,8.83
2022-12-28T04:00:38.202Z,7.87
2022-12-28T04:03:05.671Z,6.83
2022-12-28T04:05:33.236Z,8.53
2022-12-28T04:08:00.575Z,7.93
2022-12-28T04:10:27.993Z,8.47
2022-12-28T04:12:56.811Z,7.93
2022-12-28T04:15:24.223Z,7.20
2022-12-28T04:17:51.824Z,8.80
2022-12-28T04:20:19.168Z,7.00
2022-12-28T04:22:47.125Z,6.40
2022-12-28T04:25:14.563Z,7.10
2022-12-28T04:27:42.120Z,6.93
2022-12-28T04:30:10.064Z,6.60
2022-12-28T04:32:37.587Z,7.37
2022-12-28T04:35:05.361Z,6.90
2022-12-28T04:37:32.911Z,8.13
2022-12-28T04:40:00.380Z,8.10
2022-12-28T04:42:27.893Z,7.33
2022-12-28T04:44:55.456Z,7.67
2022-12-28T04:47:22.861Z,7.33
2022-12-28T04:49:50.617Z,8.23
2022-12-28T04:52:18.231Z,7.17
2022-12-28T04:54:45.615Z,8.30
2022-12-28T04:57:13.350Z,7.57
2022-12-28T04:59:40.971Z,10.83
2022-12-28T05:02:08.722Z,8.60
2022-12-28T05:04:36.342Z,8.00
2022-12-28T05:07:03.871Z,8.77
2022-12-28T05:09:31.351Z,9.10
2022-12-28T05:11:58.810Z,9.07
2022-12-28T05:14:26.210Z,8.20
2022-12-28T05:16:53.801Z,8.30
2022-12-28T05:19:21.271Z,7.90
2022-12-28T05:21:48.732Z,8.93
2022-12-28T05:24:16.248Z,8.73
2022-12-28T05:26:43.829Z,8.97
2022-12-28T05:29:11.209Z,8.83
2022-12-28T05:31:38.608Z,8.90
2022-12-28T05:34:06.048Z,9.63
2022-12-28T05:36:36.871Z,9.03
2022-12-28T05:39:04.703Z,9.87
2022-12-28T05:41:32.295Z,10.37
2022-12-28T05:44:00.427Z,11.17
2022-12-28T05:46:29.516Z,11.10
2022-12-28T05:48:57.054Z,10.07
2022-12-28T05:51:25.761Z,11.53
2022-12-28T05:53:53.190Z,9.73
2022-12-28T05:56:21.847Z,10.97
2022-12-28T05:58:53.670Z,10.80
2022-12-28T06:01:22.027Z,11.20
2022-12-28T06:03:53.062Z,11.33
2022-12-28T06:06:20.724Z,12.17
2022-12-28T06:08:49.241Z,12.70
2022-12-28T06:11:17.800Z,12.30
2022-12-28T06:13:45.326Z,12.90
2022-12-28T06:16:15.347Z,12.13
2022-12-28T06:18:43.636Z,11.83
2022-12-28T06:21:13.323Z,16.03
2022-12-28T06:23:41.096Z,14.83
2022-12-28T06:26:09.758Z,16.27
2022-12-28T06:28:38.216Z,13.73
2022-12-28T06:31:07.065Z,16.53
2022-12-28T06:33:34.532Z,14.93
2022-12-28T06:36:02.060Z,14.87
2022-12-28T06:38:32.654Z,14.40
2022-12-28T06:41:19.634Z,15.27
2022-12-28T06:43:47.598Z,14.60
2022-12-28T06:46:15.568Z,15.57
2022-12-28T06:48:43.257Z,15.20
2022-12-28T06:51:15.253Z,16.67
2022-12-28T06:53:43.119Z,14.37
2022-12-28T06:56:31.625Z,16.10
2022-12-28T06:59:03.295Z,15.60
2022-12-28T07:01:33.322Z,12.67
2022-12-28T07:04:01.602Z,15.40
2022-12-28T07:06:29.688Z,16.23
2022-12-28T07:09:01.478Z,17.60
2022-12-28T07:11:29.264Z,16.00
2022-12-28T07:13:56.989Z,15.70
2022-12-28T07:16:25.481Z,15.23
2022-12-28T07:18:53.031Z,17.17
2022-12-28T07:21:21.972Z,16.97
2022-12-28T07:23:50.065Z,14.00
2022-12-28T07:26:20.585Z,16.67
2022-12-28T07:28:48.639Z,15.13
2022-12-28T07:31:17.480Z,14.60
2022-12-28T07:33:45.642Z,15.03
2022-12-28T07:36:14.265Z,14.97
2022-12-28T07:38:42.301Z,15.00
2022-12-28T07:41:11.653Z,15.50
2022-12-28T07:43:39.097Z,15.23
2022-12-28T07:46:07.859Z,16.03
2022-12-28T07:48:36.369Z,13.77
2022-12-28T07:51:23.770Z,15.00
2022-12-28T07:53:51.901Z,15.43
2022-12-28T07:56:20.026Z,14.20
2022-12-28T08:01:17.403Z,13.90
2022-12-28T08:03:45.065Z,14.20
2022-12-28T08:06:15.081Z,15.00
2022-12-28T08:08:43.522Z,15.33
2022-12-28T08:11:12.381Z,15.10
2022-12-28T08:13:41.023Z,15.90
2022-12-28T08:16:09.408Z,16.43
2022-12-28T08:18:36.942Z,13.83
2022-12-28T08:21:05.761Z,15.73
2022-12-28T08:23:33.789Z,16.57
2022-12-28T08:26:18.324Z,14.67
2022-12-28T08:28:46.864Z,16.57
2022-12-28T08:31:17.063Z,15.43
2022-12-28T08:33:44.618Z,16.30
2022-12-28T08:36:12.157Z,15.33
2022-12-28T08:38:40.812Z,16.70
2022-12-28T08:41:09.103Z,15.10
2022-12-28T08:43:36.482Z,16.03
2022-12-28T08:46:21.007Z,13.80
2022-12-28T08:48:49.233Z,16.13
2022-12-28T08:51:36.521Z,14.60
2022-12-28T08:54:04.335Z,16.10
2022-12-28T08:56:33.228Z,17.23
2022-12-28T08:59:01.403Z,17.23
2022-12-28T09:01:30.484Z,16.60
2022-12-28T09:03:59.353Z,15.13
2022-12-28T09:06:28.037Z,17.90
2022-12-28T09:09:05.377Z,16.10
2022-12-28T09:11:34.792Z,14.47
2022-12-28T09:14:02.693Z,15.73
2022-12-28T09:16:30.257Z,18.83
2022-12-28T09:18:58.820Z,16.53
2022-12-28T09:21:27.595Z,16.37
2022-12-28T09:23:55.382Z,17.13
2022-12-28T09:26:23.842Z,60.07
2022-12-28T09:28:53.075Z,18.07
2022-12-28T09:31:21.797Z,16.63
2022-12-28T09:36:53.043Z,17.97
2022-12-28T09:39:23.554Z,18.30
2022-12-28T09:42:10.883Z,16.97
2022-12-28T09:44:58.459Z,16.23
2022-12-28T09:47:29.271Z,14.47
2022-12-28T09:50:17.706Z,15.63
2022-12-28T09:53:14.053Z,14.97
2022-12-28T09:55:52.395Z,17.37
2022-12-28T09:58:20.547Z,16.77
2022-12-28T10:00:50.033Z,17.67
2022-12-28T10:03:23.177Z,17.43
2022-12-28T10:05:53.155Z,16.60
2022-12-28T10:08:22.591Z,17.93
2022-12-28T10:10:51.128Z,17.10
2022-12-28T10:16:17.045Z,19.73
2022-12-28T10:18:50.919Z,17.60
2022-12-28T10:21:21.697Z,18.02
2022-12-28T10:26:41.842Z,17.87
2022-12-28T10:29:14.372Z,16.77
2022-12-28T10:31:43.624Z,16.33
2022-12-28T10:34:23.072Z,17.50
2022-12-28T10:36:51.546Z,16.73
2022-12-28T10:39:22.912Z,17.30
2022-12-28T10:41:51.004Z,19.37
2022-12-28T10:47:18.110Z,17.57
2022-12-28T10:50:10.491Z,15.17
2022-12-28T10:52:38.542Z,15.70
2022-12-28T10:55:25.869Z,15.70
2022-12-28T10:58:27.431Z,16.33
2022-12-28T11:00:41.002Z,14.17
2022-12-28T11:03:28.562Z,15.33
2022-12-28T11:06:16.139Z,14.63
2022-12-28T11:08:46.162Z,13.83
2022-12-28T11:11:22.481Z,13.17
2022-12-28T11:13:52.337Z,13.43
2022-12-28T11:16:19.938Z,11.87
2022-12-28T11:18:47.810Z,13.37
2022-12-28T11:21:19.510Z,11.60
2022-12-28T11:23:47.942Z,12.57
2022-12-28T11:26:15.572Z,15.97
2022-12-28T11:28:45.878Z,12.27
2022-12-28T11:31:19.178Z,12.90
2022-12-28T11:33:50.132Z,10.73
2022-12-28T11:36:19.870Z,12.03
2022-12-28T11:38:48.787Z,10.50
2022-12-28T11:41:36.301Z,11.83
2022-12-28T11:44:05.133Z,10.60
2022-12-28T11:46:53.189Z,12.40
2022-12-28T11:49:26.841Z,9.97
2022-12-28T11:52:14.150Z,10.73
2022-12-28T11:54:58.548Z,11.63
2022-12-28T11:57:43.653Z,9.00
2022-12-28T12:00:30.962Z,10.68
2022-12-28T12:03:02.916Z,8.67
2022-12-28T12:05:50.356Z,10.17
2022-12-28T12:08:37.647Z,9.77
2022-12-28T12:11:22.425Z,9.33
2022-12-28T12:13:50.685Z,9.90
2022-12-28T12:16:37.899Z,10.83
2022-12-28T12:19:07.572Z,9.00
2022-12-28T12:21:38.357Z,10.20
2022-12-28T12:24:27.009Z,10.17
2022-12-28T12:26:58.777Z,10.90
2022-12-28T12:29:38.519Z,9.90
2022-12-28T12:32:11.118Z,10.83
2022-12-28T12:34:58.414Z,9.00
2022-12-28T12:37:45.788Z,9.50
2022-12-28T12:40:33.040Z,9.47
2022-12-28T12:43:20.603Z,10.07
2022-12-28T12:46:08.148Z,10.20
2022-12-28T12:48:55.606Z,9.70
2022-12-28T12:51:42.989Z,8.80
2022-12-28T12:54:20.495Z,9.43
2022-12-28T12:56:52.885Z,8.77
2022-12-28T12:59:40.253Z,9.13
2022-12-28T13:02:27.731Z,8.53
2022-12-28T13:04:55.269Z,9.23
2022-12-28T13:07:24.818Z,9.07
2022-12-28T13:09:54.119Z,10.23
2022-12-28T13:12:21.810Z,9.37
2022-12-28T13:14:52.045Z,9.97
2022-12-28T13:17:21.602Z,10.37
2022-12-28T13:19:49.203Z,9.00
2022-12-28T13:22:33.969Z,9.37
2022-12-28T13:25:01.484Z,10.27
2022-12-28T13:27:32.844Z,9.67
2022-12-28T13:30:01.469Z,9.10
2022-12-28T13:32:37.509Z,9.23
2022-12-28T13:35:16.966Z,9.10
2022-12-28T13:37:44.433Z,7.57
2022-12-28T13:40:12.918Z,8.83
2022-12-28T13:42:55.359Z,9.87
2022-12-28T13:45:23.185Z,8.37
2022-12-28T13:47:52.309Z,8.07
2022-12-28T13:50:25.235Z,8.00
2022-12-28T13:53:12.573Z,9.13
2022-12-28T13:56:00.792Z,9.10
2022-12-28T13:58:31.758Z,9.20
2022-12-28T14:01:00.805Z,8.90
2022-12-28T14:03:32.202Z,9.33
2022-12-28T14:06:04.057Z,9.07
2022-12-28T14:08:34.941Z,8.90
2022-12-28T14:11:03.203Z,8.40
2022-12-28T14:13:32.364Z,9.33
2022-12-28T14:16:00.217Z,7.63
2022-12-28T14:18:30.213Z,9.43
2022-12-28T14:20:59.410Z,9.87
2022-12-28T14:23:29.105Z,9.50
2022-12-28T14:25:58.740Z,8.43
2022-12-28T14:28:45.971Z,10.13
2022-12-28T14:31:14.612Z,9.27
2022-12-28T14:33:50.495Z,9.10
2022-12-28T14:36:20.459Z,9.17
2022-12-28T14:38:49.744Z,10.60
2022-12-28T14:41:20.513Z,10.03
2022-12-28T14:43:56.985Z,10.07
2022-12-28T14:47:15.766Z,9.67
2022-12-28T14:49:47.535Z,9.53
2022-12-28T14:52:34.964Z,9.93
2022-12-28T14:55:06.492Z,8.80
2022-12-28T14:57:37.005Z,8.50
2022-12-28T15:00:08.028Z,9.20
2022-12-28T15:02:55.363Z,9.17
2022-12-28T15:05:43.045Z,10.77
2022-12-28T15:08:11.196Z,11.33
2022-12-28T15:10:42.147Z,11.53
2022-12-28T15:13:09.807Z,10.60
2022-12-28T15:15:37.541Z,9.47
2022-12-28T15:18:05.219Z,11.67
2022-12-28T15:20:32.777Z,11.07
2022-12-28T15:23:00.280Z,11.57
2022-12-28T15:25:27.901Z,12.03
2022-12-28T15:27:55.418Z,10.97
2022-12-28T15:30:28.836Z,9.43
2022-12-28T15:32:56.747Z,10.40
2022-12-28T15:35:24.165Z,10.87
2022-12-28T15:37:51.621Z,11.97
2022-12-28T15:40:19.049Z,11.43
2022-12-28T15:42:46.536Z,11.20
2022-12-28T15:45:14.304Z,12.43
2022-12-28T15:47:41.630Z,11.67
2022-12-28T15:50:09.534Z,10.87
2022-12-28T15:52:36.983Z,12.87
2022-12-28T15:55:04.422Z,12.33
2022-12-28T15:57:32.049Z,10.93
2022-12-28T15:59:59.444Z,11.73
2022-12-28T16:02:27.155Z,10.70
2022-12-28T16:04:56.089Z,12.73
2022-12-28T16:07:24.170Z,11.20
2022-12-28T16:09:52.043Z,11.53
2022-12-28T16:12:19.517Z,10.47
2022-12-28T16:14:47.556Z,11.67
2022-12-28T16:17:15.260Z,11.93
2022-12-28T16:19:42.704Z,10.80
2022-12-28T16:22:10.148Z,10.50
2022-12-28T16:24:37.572Z,11.70
2022-12-28T16:27:05.063Z,11.03
2022-12-28T16:29:32.764Z,11.00
2022-12-28T16:32:00.967Z,9.83
2022-12-28T16:34:28.840Z,8.77
2022-12-28T16:36:59.470Z,10.80
2022-12-28T16:39:28.485Z,12.30
2022-12-28T16:41:55.973Z,10.93
2022-12-28T16:44:24.891Z,11.17
2022-12-28T16:46:54.953Z,11.40
2022-12-28T16:49:22.859Z,11.27
2022-12-28T16:51:50.733Z,11.30
2022-12-28T16:54:19.511Z,11.30
2022-12-28T16:56:47.377Z,11.83
2022-12-28T16:59:16.969Z,11.17
2022-12-28T17:01:45.285Z,12.03
2022-12-28T17:04:13.072Z,11.03
2022-12-28T17:06:41.545Z,10.40
2022-12-28T17:09:09.335Z,12.87
2022-12-28T17:11:36.844Z,11.90
2022-12-28T17:14:06.529Z,12.50
2022-12-28T17:16:34.430Z,11.27
2022-12-28T17:19:01.848Z,11.80
2022-12-28T17:21:29.944Z,10.43
2022-12-28T17:23:57.843Z,12.67
2022-12-28T17:26:25.745Z,11.50
2022-12-28T17:28:53.331Z,11.43
2022-12-28T17:31:21.741Z,11.53
2022-12-28T17:33:50.825Z,11.80
2022-12-28T17:36:19.165Z,12.57
2022-12-28T17:38:46.552Z,12.70
2022-12-28T17:41:15.988Z,11.07
2022-12-28T17:43:59.488Z,13.73
2022-12-28T17:46:28.455Z,12.23
2022-12-28T17:48:56.707Z,11.10
2022-12-28T17:51:25.628Z,11.63
2022-12-28T17:53:54.509Z,9.90
2022-12-28T17:56:22.069Z,11.33
2022-12-28T17:58:49.829Z,11.13
2022-12-28T18:01:17.556Z,11.40
2022-12-28T18:03:45.534Z,10.37
2022-12-28T18:06:13.068Z,10.47
2022-12-28T18:08:40.503Z,9.80
2022-12-28T18:11:09.035Z,11.27
2022-12-28T18:13:36.639Z,10.60
2022-12-28T18:16:05.044Z,10.00
2022-12-28T18:18:32.499Z,11.00
2022-12-28T18:21:00.919Z,12.40
2022-12-28T18:23:29.091Z,11.87
2022-12-28T18:26:14.118Z,9.83
2022-12-28T18:28:41.609Z,12.13
2022-12-28T18:31:09.468Z,10.60
2022-12-28T18:33:37.122Z,10.40
2022-12-28T18:36:05.827Z,10.77
2022-12-28T18:38:33.882Z,10.87
2022-12-28T18:41:01.494Z,10.10
2022-12-28T18:43:29.209Z,10.17
2022-12-28T18:45:59.011Z,9.73
2022-12-28T18:48:26.998Z,10.40
2022-12-28T18:56:25.433Z,11.63
2022-12-28T18:58:54.175Z,13.17
2022-12-28T19:02:05.222Z,10.87
2022-12-28T19:04:11.626Z,12.07
2022-12-28T19:06:39.481Z,10.53
2022-12-28T19:09:07.168Z,10.60
2022-12-28T19:11:34.879Z,9.53
2022-12-28T19:14:03.243Z,9.93
2022-12-28T19:16:32.035Z,9.60
2022-12-28T19:19:00.466Z,9.70
2022-12-28T19:21:30.308Z,8.77
2022-12-28T19:23:59.013Z,8.70
2022-12-28T19:26:26.461Z,9.93
2022-12-28T19:28:54.089Z,10.10
2022-12-28T19:31:21.737Z,9.67
2022-12-28T19:33:49.241Z,9.53
2022-12-28T19:36:17.164Z,9.00
2022-12-28T19:38:44.653Z,9.57
2022-12-28T19:41:13.973Z,9.43
2022-12-28T19:43:41.869Z,8.80
2022-12-28T19:46:12.662Z,8.80
2022-12-28T19:48:40.400Z,8.57
2022-12-28T19:51:07.982Z,8.57
2022-12-28T19:53:35.425Z,9.50
2022-12-28T19:56:05.114Z,11.50
2022-12-28T19:58:32.918Z,8.87
2022-12-28T20:01:05.227Z,11.20
2022-12-28T20:03:33.081Z,10.50
2022-12-28T20:06:21.903Z,10.37
2022-12-28T20:08:50.420Z,10.23
2022-12-28T20:11:18.961Z,11.30
2022-12-28T20:13:50.924Z,9.33
2022-12-28T20:16:18.904Z,9.37
2022-12-28T20:18:47.215Z,9.40
2022-12-28T20:21:19.988Z,9.50
2022-12-28T20:23:49.243Z,9.77
2022-12-28T20:26:18.079Z,8.27
2022-12-28T20:28:46.165Z,8.77
2022-12-28T20:31:15.316Z,8.17
2022-12-28T20:33:44.220Z,9.00
2022-12-28T20:36:13.645Z,8.07
2022-12-28T20:38:41.669Z,7.97
2022-12-28T20:41:49.478Z,9.37
2022-12-28T20:44:19.538Z,8.43
2022-12-28T20:46:47.474Z,8.63
2022-12-28T20:49:16.818Z,9.20
2022-12-28T20:51:47.247Z,8.50
2022-12-28T20:54:15.400Z,6.73
2022-12-28T20:56:46.841Z,8.40
2022-12-28T20:59:18.606Z,7.82
2022-12-28T21:01:46.838Z,9.43
2022-12-28T21:04:14.918Z,10.57
2022-12-28T21:06:42.821Z,9.40
2022-12-28T21:09:10.629Z,9.43
2022-12-28T21:11:38.752Z,9.63
2022-12-28T21:14:06.778Z,10.67
2022-12-28T21:16:34.768Z,10.73
2022-12-28T21:19:02.915Z,9.87
2022-12-28T21:21:30.643Z,10.47
2022-12-28T21:23:58.192Z,10.77
2022-12-28T21:26:26.025Z,10.40
2022-12-28T21:28:53.579Z,9.73
2022-12-28T21:31:21.057Z,11.17
2022-12-28T21:33:48.766Z,10.80
2022-12-28T21:36:18.059Z,11.27
2022-12-28T21:38:46.721Z,11.33
2022-12-28T21:41:15.630Z,10.83
2022-12-28T21:43:43.367Z,10.10
2022-12-28T21:46:13.574Z,11.10
2022-12-28T21:48:42.106Z,10.33
2022-12-28T21:51:38.009Z,10.03
2022-12-28T21:54:29.916Z,9.98
2022-12-28T21:56:58.002Z,10.43
2022-12-28T21:59:26.380Z,11.40
2022-12-28T22:02:14.176Z,10.70
2022-12-28T22:05:03.694Z,12.60
2022-12-28T22:07:32.353Z,11.93
2022-12-28T22:10:19.710Z,12.13
2022-12-28T22:12:47.405Z,12.67
2022-12-28T22:15:37.473Z,13.70
2022-12-28T22:18:06.517Z,12.73
2022-12-28T22:20:35.049Z,14.17
2022-12-28T22:23:02.883Z,14.17
2022-12-28T22:25:31.080Z,13.47
2022-12-28T22:27:59.524Z,14.03
2022-12-28T22:30:27.110Z,15.50
2022-12-28T22:32:59.717Z,14.60
2022-12-28T22:35:27.319Z,14.97
2022-12-28T22:37:54.783Z,15.13
2022-12-28T22:40:22.488Z,15.37
2022-12-28T22:42:50.993Z,15.80
2022-12-28T22:45:19.860Z,15.20
2022-12-28T22:47:47.802Z,15.77
2022-12-28T22:50:17.053Z,15.37
2022-12-28T22:52:44.664Z,16.47
2022-12-28T22:55:12.728Z,16.70
2022-12-28T22:57:40.393Z,16.93
2022-12-28T23:00:09.827Z,17.07
2022-12-28T23:02:37.843Z,17.57
2022-12-28T23:05:05.729Z,17.23
2022-12-28T23:07:34.436Z,16.47
2022-12-28T23:10:02.477Z,17.50
2022-12-28T23:12:30.599Z,17.00
2022-12-28T23:15:17.945Z,17.50
2022-12-28T23:17:46.151Z,16.63
2022-12-28T23:20:33.708Z,17.10
2022-12-28T23:23:21.188Z,17.33
2022-12-28T23:26:09.136Z,15.97
2022-12-28T23:28:37.189Z,16.17
2022-12-28T23:31:05.083Z,15.00
2022-12-28T23:33:33.617Z,15.60
2022-12-28T23:36:03.430Z,15.40
2022-12-28T23:38:33.039Z,16.33
2022-12-28T23:41:23.300Z,15.77
2022-12-28T23:43:53.279Z,15.80
2022-12-28T23:46:21.627Z,15.90
2022-12-28T23:48:49.941Z,15.40
2022-12-28T23:51:30.969Z,15.60
2022-12-28T23:53:59.504Z,16.03
2022-12-28T23:56:27.023Z,15.47
2022-12-28T23:58:55.766Z,15.10
